createdAt,value
2022-11-18T00:01:20.504Z,2.39
2022-11-18T00:03:48.207Z,2.65
2022-11-18T00:06:22.622Z,5.29
2022-11-18T00:08:50.290Z,7.71
2022-11-18T00:11:42.697Z,8.09
2022-11-18T00:14:23.814Z,6.16
2022-11-18T00:17:04.088Z,4.64
2022-11-18T00:19:37.595Z,3.68
2022-11-18T00:22:07.352Z,3.00
2022-11-18T00:24:33.959Z,2.50
2022-11-18T00:27:00.561Z,2.28
2022-11-18T00:29:28.516Z,4.06
2022-11-18T00:31:56.636Z,6.09
2022-11-18T00:34:24.945Z,5.42
2022-11-18T00:36:51.634Z,4.37
2022-11-18T00:39:20.493Z,3.52
2022-11-18T00:42:06.129Z,2.87
2022-11-18T00:44:34.119Z,2.37
2022-11-18T00:47:00.952Z,2.05
2022-11-18T00:49:28.447Z,1.83
2022-11-18T00:51:54.981Z,2.41
2022-11-18T00:54:22.162Z,5.24
2022-11-18T00:56:49.106Z,6.68
2022-11-18T00:59:16.622Z,5.64
2022-11-18T01:01:43.598Z,4.51
2022-11-18T01:04:10.303Z,3.69
2022-11-18T01:06:36.857Z,3.11
2022-11-18T01:09:03.633Z,2.64
2022-11-18T01:11:49.215Z,2.26
2022-11-18T01:14:16.067Z,1.92
2022-11-18T01:16:42.701Z,1.67
2022-11-18T01:19:09.251Z,2.12
2022-11-18T01:21:35.872Z,4.86
2022-11-18T01:24:02.457Z,6.88
2022-11-18T01:26:29.054Z,6.13
2022-11-18T01:28:59.474Z,4.82
2022-11-18T01:31:26.270Z,3.77
2022-11-18T01:33:52.876Z,3.06
2022-11-18T01:36:27.554Z,2.52
2022-11-18T01:38:55.313Z,2.06
2022-11-18T01:41:26.185Z,2.33
2022-11-18T01:44:01.535Z,5.09
2022-11-18T01:46:32.682Z,7.67
2022-11-18T01:49:07.594Z,8.53
2022-11-18T01:51:46.070Z,7.14
2022-11-18T01:54:20.871Z,5.53
2022-11-18T01:56:54.481Z,4.42
2022-11-18T01:59:31.223Z,3.66
2022-11-18T02:02:00.577Z,3.03
2022-11-18T02:04:27.458Z,2.52
2022-11-18T02:06:55.216Z,2.10
2022-11-18T02:09:22.598Z,1.77
2022-11-18T02:11:56.245Z,1.50
2022-11-18T02:14:30.683Z,1.93
2022-11-18T02:17:10.027Z,4.91
2022-11-18T02:19:48.686Z,7.50
2022-11-18T02:22:37.037Z,8.25
2022-11-18T02:25:44.477Z,6.74
2022-11-18T02:29:06.202Z,5.12
2022-11-18T02:31:53.351Z,3.86
2022-11-18T02:34:58.778Z,3.10
2022-11-18T02:37:41.283Z,2.44
2022-11-18T02:40:23.048Z,1.96
2022-11-18T02:43:05.922Z,1.60
2022-11-18T02:45:35.329Z,2.10
2022-11-18T02:48:08.786Z,5.02
2022-11-18T02:50:39.215Z,7.49
2022-11-18T02:53:09.762Z,8.06
2022-11-18T02:55:40.039Z,6.61
2022-11-18T02:58:08.531Z,5.18
2022-11-18T03:00:35.865Z,4.14
2022-11-18T03:03:31.207Z,3.45
2022-11-18T03:06:24.694Z,2.86
2022-11-18T03:09:06.625Z,2.42
2022-11-18T03:12:19.607Z,2.07
2022-11-18T03:14:58.432Z,3.00
2022-11-18T03:18:02.452Z,6.17
2022-11-18T03:20:49.798Z,8.22
2022-11-18T03:23:32.852Z,7.14
2022-11-18T03:26:12.051Z,5.52
2022-11-18T03:29:01.154Z,4.42
2022-11-18T03:31:37.405Z,3.61
2022-11-18T03:34:31.203Z,3.04
2022-11-18T03:37:07.618Z,2.54
2022-11-18T03:39:43.928Z,2.82
2022-11-18T03:42:44.557Z,5.59
2022-11-18T03:45:29.945Z,7.31
2022-11-18T03:48:10.203Z,5.92
2022-11-18T03:50:45.420Z,4.64
2022-11-18T03:53:15.079Z,3.81
2022-11-18T03:55:51.476Z,3.18
2022-11-18T03:59:00.111Z,2.66
2022-11-18T04:01:56.890Z,2.20
2022-11-18T04:04:25.756Z,2.85
2022-11-18T04:07:33.533Z,5.52
2022-11-18T04:10:28.976Z,7.91
2022-11-18T04:13:22.095Z,8.37
2022-11-18T04:15:49.560Z,6.74
2022-11-18T04:18:17.077Z,5.40
2022-11-18T04:20:43.764Z,4.35
2022-11-18T04:23:10.337Z,3.59
2022-11-18T04:25:37.532Z,3.07
2022-11-18T04:28:05.327Z,2.62
2022-11-18T04:30:32.405Z,2.28
2022-11-18T04:32:58.908Z,2.61
2022-11-18T04:35:26.695Z,5.18
2022-11-18T04:37:54.225Z,7.59
2022-11-18T04:40:20.770Z,8.50
2022-11-18T04:42:47.308Z,7.31
2022-11-18T04:45:14.116Z,5.92
2022-11-18T04:47:41.127Z,4.93
2022-11-18T04:50:08.216Z,4.14
2022-11-18T04:52:34.741Z,3.55
2022-11-18T04:55:01.246Z,3.12
2022-11-18T04:57:27.759Z,2.77
2022-11-18T04:59:54.360Z,3.01
2022-11-18T05:02:20.834Z,5.39
2022-11-18T05:04:47.401Z,7.71
2022-11-18T05:07:15.847Z,8.58
2022-11-18T05:09:42.825Z,7.46
2022-11-18T05:12:32.300Z,6.08
2022-11-18T05:14:58.978Z,4.92
2022-11-18T05:17:25.585Z,4.18
2022-11-18T05:19:52.143Z,3.61
2022-11-18T05:22:19.018Z,3.15
2022-11-18T05:24:45.898Z,2.75
2022-11-18T05:27:13.676Z,2.44
2022-11-18T05:29:40.510Z,2.73
2022-11-18T05:32:07.176Z,5.34
2022-11-18T05:34:33.718Z,7.85
2022-11-18T05:37:00.284Z,8.95
2022-11-18T05:39:26.817Z,7.76
2022-11-18T05:42:12.038Z,6.30
2022-11-18T05:44:38.546Z,5.10
2022-11-18T05:47:05.443Z,4.31
2022-11-18T05:49:32.074Z,3.71
2022-11-18T05:51:58.842Z,3.21
2022-11-18T05:54:26.705Z,2.75
2022-11-18T05:56:53.292Z,2.88
2022-11-18T05:59:20.158Z,5.18
2022-11-18T06:02:07.207Z,7.53
2022-11-18T06:04:47.058Z,8.52
2022-11-18T06:07:26.945Z,7.02
2022-11-18T06:10:03.682Z,5.54
2022-11-18T06:12:42.113Z,4.45
2022-11-18T06:15:25.161Z,3.67
2022-11-18T06:18:04.946Z,3.10
2022-11-18T06:20:37.573Z,2.67
2022-11-18T06:23:04.547Z,2.27
2022-11-18T06:25:32.547Z,1.92
2022-11-18T06:28:01.847Z,1.63
2022-11-18T06:30:28.428Z,1.42
2022-11-18T06:32:55.012Z,1.75
2022-11-18T06:35:21.970Z,4.26
2022-11-18T06:37:48.465Z,6.72
2022-11-18T06:40:15.641Z,7.89
2022-11-18T06:43:00.931Z,6.96
2022-11-18T06:45:27.734Z,5.38
2022-11-18T06:48:03.669Z,4.38
2022-11-18T06:50:30.844Z,3.58
2022-11-18T06:53:00.975Z,2.96
2022-11-18T06:55:27.506Z,2.50
2022-11-18T06:57:56.596Z,2.13
2022-11-18T07:00:23.171Z,1.83
2022-11-18T07:02:49.716Z,1.60
2022-11-18T07:05:16.423Z,1.39
2022-11-18T07:07:42.930Z,1.19
2022-11-18T07:10:09.854Z,1.04
2022-11-18T07:12:36.364Z,0.93
2022-11-18T07:15:03.136Z,0.85
2022-11-18T07:17:30.736Z,0.78
2022-11-18T07:19:57.422Z,0.72
2022-11-18T07:22:24.051Z,0.68
2022-11-18T07:24:50.548Z,0.64
2022-11-18T07:27:16.991Z,0.61
2022-11-18T07:29:43.482Z,0.60
2022-11-18T07:32:09.996Z,0.59
2022-11-18T07:34:36.552Z,0.58
2022-11-18T07:37:03.070Z,0.58
2022-11-18T07:39:30.332Z,0.58
2022-11-18T07:41:56.939Z,0.59
2022-11-18T07:44:23.490Z,0.60
2022-11-18T07:46:50.085Z,0.61
2022-11-18T07:49:16.996Z,0.63
2022-11-18T07:51:43.821Z,0.64
2022-11-18T07:54:13.924Z,0.66
2022-11-18T07:56:40.528Z,0.68
2022-11-18T07:59:07.767Z,0.71
2022-11-18T08:01:35.086Z,0.75
2022-11-18T08:04:12.600Z,0.78
2022-11-18T08:06:39.863Z,0.83
2022-11-18T08:09:08.174Z,0.89
2022-11-18T08:11:35.563Z,0.95
2022-11-18T08:14:02.217Z,1.01
2022-11-18T08:16:28.994Z,1.03
2022-11-18T08:18:55.685Z,1.02
2022-11-18T08:21:23.072Z,0.98
2022-11-18T08:23:57.703Z,0.92
2022-11-18T08:26:26.019Z,0.84
2022-11-18T08:28:53.269Z,1.37
2022-11-18T08:31:26.642Z,4.30
2022-11-18T08:34:07.297Z,6.58
2022-11-18T08:36:37.819Z,5.64
2022-11-18T08:39:08.557Z,4.40
2022-11-18T08:41:44.014Z,3.55
2022-11-18T08:44:14.492Z,2.95
2022-11-18T08:46:42.634Z,2.53
2022-11-18T08:49:09.209Z,2.24
2022-11-18T08:51:35.766Z,2.02
2022-11-18T08:54:03.076Z,1.84
2022-11-18T08:56:29.752Z,1.68
2022-11-18T08:58:56.523Z,1.58
2022-11-18T09:01:23.426Z,1.51
2022-11-18T09:03:50.462Z,1.48
2022-11-18T09:06:21.371Z,2.12
2022-11-18T09:08:48.347Z,4.93
2022-11-18T09:11:26.030Z,6.78
2022-11-18T09:16:45.269Z,5.04
2022-11-18T09:19:45.737Z,4.44
2022-11-18T09:21:58.984Z,4.04
2022-11-18T09:24:25.569Z,3.86
2022-11-18T09:26:53.351Z,3.72
2022-11-18T09:29:24.774Z,3.62
2022-11-18T09:32:06.809Z,3.61
2022-11-18T09:34:43.133Z,3.75
2022-11-18T09:37:13.180Z,3.87
2022-11-18T09:39:49.467Z,3.99
2022-11-18T09:42:41.742Z,4.09
2022-11-18T09:45:27.253Z,4.19
2022-11-18T09:48:19.902Z,4.22
2022-11-18T09:50:59.620Z,4.31
2022-11-18T09:53:28.141Z,4.40
2022-11-18T09:55:58.229Z,4.40
2022-11-18T09:58:41.572Z,4.35
2022-11-18T10:01:19.590Z,4.20
2022-11-18T10:03:51.452Z,4.10
2022-11-18T10:06:35.087Z,4.10
2022-11-18T10:09:37.436Z,4.11
2022-11-18T10:12:45.297Z,4.04
2022-11-18T10:15:28.719Z,3.96
2022-11-18T10:18:58.642Z,3.83
2022-11-18T10:21:53.469Z,3.59
2022-11-18T10:24:33.438Z,3.33
2022-11-18T10:27:19.268Z,3.05
2022-11-18T10:30:00.971Z,2.66
2022-11-18T10:32:27.652Z,2.34
2022-11-18T10:34:57.995Z,2.13
2022-11-18T10:37:52.619Z,2.00
2022-11-18T10:40:29.446Z,2.97
2022-11-18T10:42:56.616Z,6.02
2022-11-18T10:45:23.065Z,7.68
2022-11-18T10:48:18.359Z,6.95
2022-11-18T10:50:55.566Z,5.69
2022-11-18T10:53:36.973Z,4.78
2022-11-18T10:56:08.256Z,4.17
2022-11-18T10:58:45.934Z,3.78
2022-11-18T11:01:15.483Z,3.41
2022-11-18T11:03:56.458Z,3.13
2022-11-18T11:06:26.030Z,2.90
2022-11-18T11:09:05.326Z,2.73
2022-11-18T11:12:01.718Z,2.54
2022-11-18T11:14:36.955Z,2.41
2022-11-18T11:17:08.917Z,2.29
2022-11-18T11:19:51.598Z,2.20
2022-11-18T11:22:19.195Z,2.11
2022-11-18T11:24:47.405Z,2.05
2022-11-18T11:30:23.519Z,2.00
2022-11-18T11:33:13.498Z,1.98
2022-11-18T11:36:01.950Z,1.99
2022-11-18T11:38:45.065Z,1.97
2022-11-18T11:41:25.859Z,1.97
2022-11-18T11:44:26.664Z,1.93
2022-11-18T11:47:57.127Z,1.88
2022-11-18T11:50:29.644Z,1.85
2022-11-18T11:53:27.692Z,1.81
2022-11-18T11:56:40.315Z,1.68
2022-11-18T11:59:28.161Z,1.57
2022-11-18T12:02:35.015Z,1.52
2022-11-18T12:05:30.570Z,1.52
2022-11-18T12:08:01.597Z,1.51
2022-11-18T12:10:56.712Z,1.50
2022-11-18T12:13:36.978Z,1.47
2022-11-18T12:16:30.822Z,1.43
2022-11-18T12:19:19.511Z,1.39
2022-11-18T12:21:46.117Z,1.37
2022-11-18T12:24:39.750Z,1.36
2022-11-18T12:27:29.907Z,1.36
2022-11-18T12:30:01.133Z,1.35
2022-11-18T12:32:44.791Z,1.36
2022-11-18T12:35:11.174Z,1.37
2022-11-18T12:37:44.222Z,1.40
2022-11-18T12:40:51.812Z,1.41
2022-11-18T12:43:44.302Z,1.40
2022-11-18T12:46:26.067Z,1.38
2022-11-18T12:48:52.816Z,1.33
2022-11-18T12:51:19.252Z,1.29
2022-11-18T12:53:49.073Z,1.28
2022-11-18T12:56:18.576Z,1.27
2022-11-18T12:58:47.815Z,1.25
2022-11-18T13:01:19.128Z,1.25
2022-11-18T13:03:46.269Z,1.28
2022-11-18T13:06:29.724Z,1.33
2022-11-18T13:09:03.501Z,1.35
2022-11-18T13:11:45.863Z,1.37
2022-11-18T13:14:47.454Z,1.39
2022-11-18T13:18:04.750Z,1.42
2022-11-18T13:20:36.919Z,1.40
2022-11-18T13:23:28.284Z,1.35
2022-11-18T13:26:05.404Z,1.28
2022-11-18T13:28:41.497Z,1.23
2022-11-18T13:31:29.330Z,1.16
2022-11-18T13:34:02.442Z,1.10
2022-11-18T13:36:32.650Z,1.04
2022-11-18T13:39:05.673Z,0.99
2022-11-18T13:41:34.801Z,0.95
2022-11-18T13:44:25.290Z,0.91
2022-11-18T13:47:18.936Z,0.86
2022-11-18T13:50:01.519Z,0.83
2022-11-18T13:52:40.921Z,0.79
2022-11-18T13:55:30.667Z,0.76
2022-11-18T13:58:06.863Z,0.73
2022-11-18T14:00:35.612Z,0.71
2022-11-18T14:03:27.015Z,0.68
2022-11-18T14:05:58.301Z,0.66
2022-11-18T14:08:34.286Z,0.66
2022-11-18T14:11:03.282Z,0.64
2022-11-18T14:13:36.073Z,0.63
2022-11-18T14:16:20.826Z,0.62
2022-11-18T14:18:53.856Z,1.44
2022-11-18T14:21:33.922Z,4.52
2022-11-18T14:24:02.613Z,6.83
2022-11-18T14:26:38.511Z,6.07
2022-11-18T14:29:22.496Z,4.74
2022-11-18T14:32:10.818Z,3.72
2022-11-18T14:34:37.395Z,3.04
2022-11-18T14:37:12.478Z,2.62
2022-11-18T14:39:39.896Z,2.27
2022-11-18T14:42:12.894Z,1.99
2022-11-18T14:44:39.414Z,1.72
2022-11-18T14:47:28.834Z,1.50
2022-11-18T14:49:55.492Z,1.28
2022-11-18T14:52:22.025Z,1.11
2022-11-18T14:54:48.537Z,0.97
2022-11-18T14:57:17.009Z,0.84
2022-11-18T14:59:44.184Z,0.74
2022-11-18T15:02:17.092Z,0.65
2022-11-18T15:04:44.512Z,0.57
2022-11-18T15:07:22.842Z,0.50
2022-11-18T15:09:50.352Z,0.42
2022-11-18T15:12:17.129Z,0.35
2022-11-18T15:14:43.680Z,0.28
2022-11-18T15:17:13.028Z,0.23
2022-11-18T15:19:42.919Z,0.18
2022-11-18T15:22:09.500Z,0.14
2022-11-18T15:24:36.319Z,0.10
2022-11-18T15:27:04.664Z,0.07
2022-11-18T15:29:31.233Z,0.04
2022-11-18T15:31:57.767Z,0.01
2022-11-18T15:34:24.424Z,-0.01
2022-11-18T15:36:51.190Z,-0.03
2022-11-18T15:39:17.916Z,-0.02
2022-11-18T15:41:44.527Z,-0.02
2022-11-18T15:44:11.220Z,-0.01
2022-11-18T15:46:38.824Z,-0.00
2022-11-18T15:49:08.159Z,-0.01
2022-11-18T15:51:36.212Z,-0.01
2022-11-18T15:54:02.889Z,-0.02
2022-11-18T15:56:30.749Z,-0.03
2022-11-18T15:59:12.759Z,-0.04
2022-11-18T16:01:43.311Z,-0.04
2022-11-18T16:04:12.803Z,-0.05
2022-11-18T16:06:42.906Z,-0.06
2022-11-18T16:09:10.656Z,-0.07
2022-11-18T16:11:55.884Z,-0.07
2022-11-18T16:14:23.492Z,-0.08
2022-11-18T16:16:53.801Z,-0.08
2022-11-18T16:19:24.371Z,0.54
2022-11-18T16:21:54.853Z,3.48
2022-11-18T16:24:28.385Z,6.29
2022-11-18T16:26:56.210Z,7.48
2022-11-18T16:29:24.036Z,6.29
2022-11-18T16:31:52.205Z,4.90
2022-11-18T16:34:22.560Z,3.75
2022-11-18T16:36:53.245Z,2.89
2022-11-18T16:39:24.913Z,2.31
2022-11-18T16:42:02.063Z,1.89
2022-11-18T16:44:33.206Z,1.48
2022-11-18T16:46:59.807Z,1.19
2022-11-18T16:49:27.737Z,0.93
2022-11-18T16:51:56.582Z,0.74
2022-11-18T16:54:29.364Z,0.59
2022-11-18T16:56:58.230Z,0.44
2022-11-18T16:59:30.785Z,0.31
2022-11-18T17:01:59.774Z,0.22
2022-11-18T17:04:28.914Z,0.13
2022-11-18T17:06:59.155Z,0.07
2022-11-18T17:09:26.325Z,0.02
2022-11-18T17:11:54.810Z,0.52
2022-11-18T17:14:23.023Z,3.35
2022-11-18T17:16:51.593Z,6.09
2022-11-18T17:19:21.845Z,7.32
2022-11-18T17:21:50.764Z,6.10
2022-11-18T17:24:20.848Z,4.48
2022-11-18T17:26:48.693Z,3.36
2022-11-18T17:29:16.067Z,2.55
2022-11-18T17:31:44.422Z,1.87
2022-11-18T17:34:13.873Z,1.38
2022-11-18T17:36:41.957Z,1.02
2022-11-18T17:39:11.610Z,0.77
2022-11-18T17:41:57.337Z,0.56
2022-11-18T17:44:24.834Z,0.38
2022-11-18T17:46:51.650Z,0.26
2022-11-18T17:49:20.725Z,0.16
2022-11-18T17:51:47.826Z,0.07
2022-11-18T17:54:14.616Z,0.01
2022-11-18T17:56:41.802Z,-0.04
2022-11-18T17:59:08.388Z,-0.08
2022-11-18T18:01:35.315Z,-0.12
2022-11-18T18:04:02.587Z,-0.17
2022-11-18T18:06:29.092Z,-0.21
2022-11-18T18:08:57.820Z,-0.25
2022-11-18T18:11:25.779Z,-0.27
2022-11-18T18:14:12.041Z,-0.30
2022-11-18T18:16:53.533Z,-0.32
2022-11-18T18:19:22.720Z,0.28
2022-11-18T18:21:49.371Z,3.19
2022-11-18T18:24:18.825Z,6.12
2022-11-18T18:26:47.223Z,7.45
2022-11-18T18:29:14.032Z,6.33
2022-11-18T18:31:40.708Z,4.87
2022-11-18T18:34:07.361Z,3.79
2022-11-18T18:36:34.607Z,3.00
2022-11-18T18:39:01.871Z,2.41
2022-11-18T18:41:29.220Z,1.98
2022-11-18T18:43:56.155Z,1.63
2022-11-18T18:46:28.944Z,1.34
2022-11-18T18:49:07.748Z,1.08
2022-11-18T18:51:39.632Z,0.84
2022-11-18T18:54:09.906Z,0.67
2022-11-18T18:56:38.123Z,0.52
2022-11-18T18:59:06.145Z,0.37
2022-11-18T19:01:33.091Z,0.24
2022-11-18T19:04:04.598Z,0.12
2022-11-18T19:09:26.583Z,-0.03
2022-11-18T19:12:12.473Z,0.36
2022-11-18T19:14:39.417Z,3.28
2022-11-18T19:17:10.777Z,5.94
2022-11-18T19:19:59.623Z,7.58
2022-11-18T19:22:32.569Z,8.07
2022-11-18T19:25:01.111Z,6.69
2022-11-18T19:27:28.615Z,5.29
2022-11-18T19:29:55.178Z,4.27
2022-11-18T19:32:21.878Z,3.48
2022-11-18T19:34:48.497Z,2.86
2022-11-18T19:37:15.133Z,2.35
2022-11-18T19:39:41.664Z,1.91
2022-11-18T19:42:10.097Z,1.55
2022-11-18T19:44:36.610Z,1.22
2022-11-18T19:47:03.258Z,0.95
2022-11-18T19:49:30.286Z,0.73
2022-11-18T19:51:57.227Z,0.52
2022-11-18T19:54:23.828Z,0.35
2022-11-18T19:56:50.415Z,0.21
2022-11-18T19:59:17.382Z,0.11
2022-11-18T20:01:44.501Z,0.05
2022-11-18T20:04:11.154Z,-0.03
2022-11-18T20:06:37.868Z,-0.11
2022-11-18T20:09:09.592Z,0.35
2022-11-18T20:11:37.699Z,3.18
2022-11-18T20:14:05.773Z,5.61
2022-11-18T20:16:33.272Z,6.99
2022-11-18T20:19:05.180Z,7.33
2022-11-18T20:21:34.645Z,6.13
2022-11-18T20:24:04.132Z,4.84
2022-11-18T20:26:40.058Z,3.82
2022-11-18T20:29:08.522Z,2.96
2022-11-18T20:31:36.723Z,2.36
2022-11-18T20:34:04.696Z,1.88
2022-11-18T20:36:35.635Z,1.50
2022-11-18T20:39:12.186Z,1.20
2022-11-18T20:41:38.709Z,0.89
2022-11-18T20:44:05.301Z,0.60
2022-11-18T20:46:33.878Z,0.78
2022-11-18T20:49:01.375Z,2.99
2022-11-18T20:51:28.909Z,5.11
2022-11-18T20:53:59.229Z,5.87
2022-11-18T20:56:27.632Z,4.67
2022-11-18T20:58:57.315Z,3.33
2022-11-18T21:01:28.759Z,2.33
2022-11-18T21:03:58.937Z,1.60
2022-11-18T21:06:29.591Z,1.03
2022-11-18T21:08:59.254Z,1.20
2022-11-18T21:11:27.135Z,3.48
2022-11-18T21:14:13.730Z,5.45
2022-11-18T21:16:44.442Z,6.87
2022-11-18T21:19:11.847Z,7.20
2022-11-18T21:21:44.200Z,5.73
2022-11-18T21:24:20.925Z,4.17
2022-11-18T21:26:49.674Z,2.97
2022-11-18T21:29:18.166Z,2.08
2022-11-18T21:31:49.187Z,1.40
2022-11-18T21:34:18.304Z,0.83
2022-11-18T21:36:49.183Z,0.94
2022-11-18T21:39:19.974Z,3.28
2022-11-18T21:41:50.612Z,5.16
2022-11-18T21:44:20.472Z,6.48
2022-11-18T21:46:47.009Z,7.05
2022-11-18T21:49:13.894Z,5.67
2022-11-18T21:51:40.462Z,4.12
2022-11-18T21:54:08.193Z,2.96
2022-11-18T21:56:34.768Z,2.06
2022-11-18T21:59:02.627Z,1.40
2022-11-18T22:01:32.745Z,0.87
2022-11-18T22:04:02.392Z,0.96
2022-11-18T22:06:32.874Z,3.26
2022-11-18T22:09:00.925Z,5.35
2022-11-18T22:11:28.367Z,6.24
2022-11-18T22:13:55.388Z,4.98
2022-11-18T22:16:24.314Z,3.57
2022-11-18T22:18:59.258Z,2.47
2022-11-18T22:21:29.428Z,1.55
2022-11-18T22:24:02.549Z,0.90
2022-11-18T22:26:29.257Z,0.39
2022-11-18T22:28:57.869Z,0.50
2022-11-18T22:31:27.441Z,2.79
2022-11-18T22:33:55.776Z,5.02
2022-11-18T22:36:25.540Z,5.98
2022-11-18T22:38:53.553Z,4.94
2022-11-18T22:41:46.367Z,3.63
2022-11-18T22:44:15.850Z,2.57
2022-11-18T22:46:44.905Z,1.87
2022-11-18T22:49:12.449Z,1.34
2022-11-18T22:51:40.146Z,0.93
2022-11-18T22:56:58.027Z,0.99
2022-11-18T22:59:24.841Z,3.84
2022-11-18T23:01:52.386Z,5.61
2022-11-18T23:04:19.486Z,4.76
2022-11-18T23:06:45.998Z,3.38
2022-11-18T23:09:12.987Z,2.36
2022-11-18T23:11:58.908Z,1.64
2022-11-18T23:14:25.426Z,1.05
2022-11-18T23:16:52.338Z,0.62
2022-11-18T23:19:19.155Z,0.80
2022-11-18T23:21:46.315Z,3.27
2022-11-18T23:24:15.554Z,5.69
2022-11-18T23:26:43.246Z,6.56
2022-11-18T23:29:12.301Z,5.35
2022-11-18T23:31:43.951Z,3.95
2022-11-18T23:34:13.016Z,2.92
2022-11-18T23:36:40.737Z,2.10
2022-11-18T23:39:07.868Z,1.46
2022-11-18T23:41:34.742Z,0.97
2022-11-18T23:44:01.577Z,0.58
2022-11-18T23:46:28.758Z,0.81
2022-11-18T23:48:55.922Z,3.39
2022-11-18T23:51:24.498Z,5.96
2022-11-18T23:53:56.528Z,7.02
2022-11-18T23:56:26.399Z,5.89
2022-11-18T23:58:56.112Z,4.51
